createdAt,value
2022-09-23T00:00:34.684Z,8.70
2022-09-23T00:03:28.952Z,8.30
2022-09-23T00:06:10.827Z,7.40
2022-09-23T00:08:45.176Z,7.40
2022-09-23T00:11:22.723Z,8.40
2022-09-23T00:13:59.045Z,8.00
2022-09-23T00:16:36.358Z,8.50
2022-09-23T00:19:10.385Z,8.20
2022-09-23T00:21:44.753Z,7.90
2022-09-23T00:24:19.925Z,8.10
2022-09-23T00:26:53.703Z,7.50
2022-09-23T00:29:27.665Z,8.20
2022-09-23T00:32:01.444Z,8.30
2022-09-23T00:34:35.129Z,8.50
2022-09-23T00:37:10.838Z,9.00
2022-09-23T00:39:46.726Z,8.10
2022-09-23T00:42:23.201Z,8.00
2022-09-23T00:44:58.933Z,8.50
2022-09-23T00:47:42.176Z,7.80
2022-09-23T00:50:25.500Z,9.20
2022-09-23T00:53:04.414Z,8.60
2022-09-23T00:55:43.154Z,8.00
2022-09-23T00:58:25.009Z,7.80
2022-09-23T01:01:00.545Z,7.90
2022-09-23T01:03:35.091Z,8.20
2022-09-23T01:06:10.462Z,8.20
2022-09-23T01:08:47.351Z,7.10
2022-09-23T01:11:47.048Z,7.50
2022-09-23T01:14:47.470Z,7.10
2022-09-23T01:17:34.430Z,7.50
2022-09-23T01:20:43.322Z,8.50
2022-09-23T01:23:47.644Z,7.00
2022-09-23T01:26:51.262Z,7.40
2022-09-23T01:30:04.066Z,7.00
2022-09-23T01:32:57.948Z,7.20
2022-09-23T01:35:56.949Z,7.50
2022-09-23T01:38:44.830Z,6.70
2022-09-23T01:41:38.965Z,6.90
2022-09-23T01:44:19.640Z,6.30
2022-09-23T01:46:57.944Z,6.70
2022-09-23T01:49:39.322Z,6.50
2022-09-23T01:52:20.744Z,6.80
2022-09-23T01:55:03.547Z,6.70
2022-09-23T01:57:44.517Z,6.90
2022-09-23T02:00:23.149Z,6.10
2022-09-23T02:03:05.035Z,6.60
2022-09-23T02:05:44.359Z,7.20
2022-09-23T02:08:24.972Z,7.80
2022-09-23T02:11:04.810Z,7.40
2022-09-23T02:13:46.269Z,7.40
2022-09-23T02:16:29.137Z,6.70
2022-09-23T02:19:12.380Z,6.50
2022-09-23T02:21:52.033Z,6.30
2022-09-23T02:24:31.565Z,6.40
2022-09-23T02:27:20.438Z,7.00
2022-09-23T02:30:04.964Z,6.50
2022-09-23T02:32:50.964Z,6.60
2022-09-23T02:35:34.771Z,5.80
2022-09-23T02:38:21.883Z,5.90
2022-09-23T02:41:04.746Z,6.60
2022-09-23T02:43:46.870Z,7.20
2022-09-23T02:46:21.746Z,7.20
2022-09-23T02:49:01.011Z,6.50
2022-09-23T02:51:38.339Z,7.40
2022-09-23T02:54:18.065Z,7.10
2022-09-23T02:56:52.576Z,7.00
2022-09-23T02:59:27.156Z,8.30
2022-09-23T03:02:36.321Z,8.90
2022-09-23T03:05:25.036Z,7.90
2022-09-23T03:08:21.998Z,7.60
2022-09-23T03:11:04.444Z,8.30
2022-09-23T03:13:58.961Z,9.50
2022-09-23T03:16:44.384Z,8.80
2022-09-23T03:19:30.173Z,7.40
2022-09-23T03:22:11.664Z,7.90
2022-09-23T03:24:53.758Z,7.30
2022-09-23T03:27:34.231Z,7.40
2022-09-23T03:30:11.872Z,8.30
2022-09-23T03:32:49.351Z,7.20
2022-09-23T03:35:28.719Z,7.30
2022-09-23T03:38:11.372Z,7.70
2022-09-23T03:40:51.033Z,7.20
2022-09-23T03:43:25.670Z,8.90
2022-09-23T03:46:01.477Z,8.30
2022-09-23T03:48:35.557Z,9.30
2022-09-23T03:51:24.101Z,8.50
2022-09-23T03:53:58.146Z,8.70
2022-09-23T03:56:31.922Z,8.60
2022-09-23T03:59:05.859Z,9.40
2022-09-23T04:01:41.909Z,9.40
2022-09-23T04:04:15.987Z,9.70
2022-09-23T04:06:49.918Z,9.30
2022-09-23T04:09:24.513Z,10.00
2022-09-23T04:11:58.761Z,10.20
2022-09-23T04:14:32.784Z,9.10
2022-09-23T04:17:07.443Z,9.00
2022-09-23T04:19:41.991Z,8.10
2022-09-23T04:22:15.918Z,8.20
2022-09-23T04:24:50.055Z,7.90
2022-09-23T04:27:23.858Z,8.40
2022-09-23T04:29:57.793Z,8.50
2022-09-23T04:32:31.843Z,7.40
2022-09-23T04:35:06.479Z,7.60
2022-09-23T04:37:43.111Z,9.20
2022-09-23T04:40:17.298Z,8.90
2022-09-23T04:42:51.501Z,8.70
2022-09-23T04:45:25.469Z,8.60
2022-09-23T04:47:59.660Z,8.70
2022-09-23T04:50:35.643Z,9.30
2022-09-23T04:53:09.790Z,8.90
2022-09-23T04:55:43.887Z,9.40
2022-09-23T04:58:18.161Z,10.80
2022-09-23T05:00:53.224Z,11.70
2022-09-23T05:03:27.583Z,10.80
2022-09-23T05:06:04.208Z,12.00
2022-09-23T05:08:38.337Z,12.00
2022-09-23T05:11:12.381Z,12.30
2022-09-23T05:13:46.616Z,12.80
2022-09-23T05:16:22.823Z,12.40
2022-09-23T05:18:57.650Z,12.80
2022-09-23T05:21:31.879Z,12.20
2022-09-23T05:24:06.647Z,11.30
2022-09-23T05:26:40.979Z,12.80
2022-09-23T05:29:15.057Z,13.40
2022-09-23T05:31:48.994Z,13.70
2022-09-23T05:34:23.360Z,11.50
2022-09-23T05:36:58.400Z,11.10
2022-09-23T05:39:33.902Z,12.50
2022-09-23T05:42:09.173Z,11.10
2022-09-23T05:44:42.963Z,10.70
2022-09-23T05:47:16.901Z,9.60
2022-09-23T05:49:59.537Z,11.30
2022-09-23T05:52:36.354Z,9.50
2022-09-23T05:55:12.122Z,9.70
2022-09-23T05:57:45.977Z,9.30
2022-09-23T06:00:20.360Z,9.90
2022-09-23T06:02:54.187Z,9.70
2022-09-23T06:05:28.132Z,11.80
2022-09-23T06:08:02.822Z,12.40
2022-09-23T06:10:41.675Z,11.50
2022-09-23T06:13:16.250Z,12.50
2022-09-23T06:15:50.516Z,12.30
2022-09-23T06:18:24.433Z,11.40
2022-09-23T06:21:01.427Z,12.00
2022-09-23T06:23:38.671Z,12.60
2022-09-23T06:26:17.118Z,11.90
2022-09-23T06:28:52.629Z,11.20
2022-09-23T06:31:26.792Z,11.50
2022-09-23T06:34:12.372Z,12.20
2022-09-23T06:36:48.041Z,12.10
2022-09-23T06:39:22.044Z,11.80
2022-09-23T06:41:55.805Z,12.20
2022-09-23T06:44:31.214Z,11.20
2022-09-23T06:47:05.009Z,11.10
2022-09-23T06:49:39.017Z,11.60
2022-09-23T06:52:13.399Z,11.40
2022-09-23T06:54:47.464Z,12.30
2022-09-23T06:57:21.518Z,10.70
2022-09-23T06:59:55.424Z,9.90
2022-09-23T07:02:29.775Z,9.00
2022-09-23T07:05:03.765Z,9.20
2022-09-23T07:07:38.398Z,9.20
2022-09-23T07:10:14.925Z,9.40
2022-09-23T07:12:49.065Z,10.50
2022-09-23T07:15:22.927Z,8.40
2022-09-23T07:17:56.840Z,9.40
2022-09-23T07:20:30.942Z,9.10
2022-09-23T07:23:05.161Z,9.40
2022-09-23T07:25:39.018Z,9.90
2022-09-23T07:28:13.122Z,9.40
2022-09-23T07:30:58.674Z,8.80
2022-09-23T07:33:35.061Z,8.30
2022-09-23T07:36:17.016Z,7.60
2022-09-23T07:38:51.804Z,7.70
2022-09-23T07:41:26.108Z,8.10
2022-09-23T07:44:01.760Z,7.80
2022-09-23T07:46:37.670Z,6.70
2022-09-23T07:49:11.760Z,7.40
2022-09-23T07:51:46.289Z,7.80
2022-09-23T07:54:21.657Z,6.60
2022-09-23T07:56:55.493Z,7.30
2022-09-23T07:59:29.351Z,6.30
2022-09-23T08:02:03.591Z,7.10
2022-09-23T08:04:38.170Z,6.50
2022-09-23T08:07:15.186Z,7.30
2022-09-23T08:09:49.055Z,8.10
2022-09-23T08:12:23.475Z,6.40
2022-09-23T08:14:57.916Z,6.50
2022-09-23T08:17:31.852Z,6.70
2022-09-23T08:20:06.775Z,7.90
2022-09-23T08:22:40.916Z,6.30
2022-09-23T08:25:14.944Z,4.80
2022-09-23T08:27:48.749Z,5.90
2022-09-23T08:30:22.793Z,6.20
2022-09-23T08:32:56.967Z,6.50
2022-09-23T08:35:31.144Z,6.70
2022-09-23T08:38:05.619Z,5.90
2022-09-23T08:40:44.362Z,6.50
2022-09-23T08:43:28.409Z,5.60
2022-09-23T08:46:06.858Z,6.30
2022-09-23T08:48:45.826Z,5.40
2022-09-23T08:51:37.243Z,4.70
2022-09-23T08:54:15.234Z,4.40
2022-09-23T08:56:52.627Z,5.30
2022-09-23T08:59:35.597Z,6.40
2022-09-23T09:02:20.829Z,6.20
2022-09-23T09:05:03.383Z,4.50
2022-09-23T09:07:42.266Z,4.30
2022-09-23T09:10:23.208Z,3.50
2022-09-23T09:13:08.039Z,2.60
2022-09-23T09:15:55.197Z,2.40
2022-09-23T09:18:33.671Z,3.00
2022-09-23T09:21:16.044Z,3.00
2022-09-23T09:23:57.129Z,2.80
2022-09-23T09:26:34.842Z,3.30
2022-09-23T09:29:36.337Z,3.90
2022-09-23T09:32:25.678Z,3.10
2022-09-23T09:35:09.001Z,3.20
2022-09-23T09:37:49.075Z,3.20
2022-09-23T09:40:23.317Z,2.90
2022-09-23T09:42:57.043Z,2.10
2022-09-23T09:45:57.941Z,1.60
2022-09-23T09:48:41.679Z,2.30
2022-09-23T09:51:27.788Z,2.10
2022-09-23T09:54:26.132Z,1.80
2022-09-23T09:57:04.919Z,2.20
2022-09-23T09:59:44.145Z,2.30
2022-09-23T10:02:30.995Z,1.40
2022-09-23T10:05:23.900Z,1.30
2022-09-23T10:08:16.156Z,1.90
2022-09-23T10:11:03.552Z,1.50
2022-09-23T10:13:37.978Z,1.00
2022-09-23T10:16:12.655Z,1.70
2022-09-23T10:18:57.127Z,1.30
2022-09-23T10:21:39.437Z,2.00
2022-09-23T10:24:27.587Z,1.30
2022-09-23T10:28:52.269Z,1.40
2022-09-23T10:31:30.301Z,1.90
2022-09-23T10:34:22.447Z,1.40
2022-09-23T10:37:07.793Z,1.20
2022-09-23T10:39:59.652Z,1.20
2022-09-23T10:43:06.288Z,1.80
2022-09-23T10:46:04.523Z,1.60
2022-09-23T10:48:54.338Z,1.60
2022-09-23T10:51:36.045Z,1.30
2022-09-23T10:54:26.742Z,1.30
2022-09-23T10:57:27.372Z,1.30
2022-09-23T11:00:22.431Z,1.20
2022-09-23T11:03:36.184Z,1.30
2022-09-23T11:06:25.157Z,2.40
2022-09-23T11:09:17.288Z,2.20
2022-09-23T11:12:10.259Z,2.90
2022-09-23T11:15:24.853Z,3.10
2022-09-23T11:18:29.287Z,1.70
2022-09-23T11:21:35.351Z,1.20
2022-09-23T11:24:50.346Z,1.20
2022-09-23T11:27:55.479Z,1.50
2022-09-23T11:30:37.793Z,1.30
2022-09-23T11:33:38.713Z,1.20
2022-09-23T11:36:28.011Z,1.20
2022-09-23T11:39:11.599Z,1.10
2022-09-23T11:41:48.314Z,1.30
2022-09-23T11:44:28.990Z,1.10
2022-09-23T11:47:12.100Z,1.40
2022-09-23T11:49:56.443Z,1.10
2022-09-23T11:52:37.937Z,1.20
2022-09-23T11:55:23.312Z,1.30
2022-09-23T11:58:09.376Z,1.40
2022-09-23T12:01:01.115Z,1.40
2022-09-23T12:03:50.689Z,1.30
2022-09-23T12:06:34.730Z,1.20
2022-09-23T12:09:41.108Z,0.90
2022-09-23T12:12:27.202Z,0.80
2022-09-23T12:15:08.322Z,1.00
2022-09-23T12:18:36.019Z,1.00
2022-09-23T12:21:50.226Z,1.70
2022-09-23T12:24:58.812Z,1.00
2022-09-23T12:27:43.889Z,1.00
2022-09-23T12:30:22.730Z,0.80
2022-09-23T12:33:12.453Z,1.00
2022-09-23T12:35:48.989Z,1.50
2022-09-23T12:38:30.035Z,1.00
2022-09-23T12:41:19.212Z,0.90
2022-09-23T12:43:59.146Z,1.50
2022-09-23T12:46:34.562Z,4.70
2022-09-23T12:49:26.442Z,3.30
2022-09-23T12:55:40.097Z,2.40
2022-09-23T12:59:22.116Z,1.20
2022-09-23T13:01:57.191Z,1.20
2022-09-23T13:05:02.814Z,1.30
2022-09-23T13:07:42.351Z,0.70
2022-09-23T13:10:26.376Z,1.20
2022-09-23T13:13:02.428Z,0.70
2022-09-23T13:15:38.817Z,0.50
2022-09-23T13:18:55.857Z,0.60
2022-09-23T13:22:08.022Z,0.50
2022-09-23T13:24:53.785Z,0.50
2022-09-23T13:27:34.959Z,0.50
2022-09-23T13:30:25.903Z,0.70
2022-09-23T13:33:12.813Z,0.70
2022-09-23T13:35:53.232Z,0.70
2022-09-23T13:38:32.434Z,0.50
2022-09-23T13:41:13.686Z,0.60
2022-09-23T13:43:55.599Z,1.00
2022-09-23T13:46:36.555Z,0.60
2022-09-23T13:49:24.580Z,0.70
2022-09-23T13:51:59.940Z,1.10
2022-09-23T13:54:36.649Z,0.50
2022-09-23T13:57:27.921Z,1.60
2022-09-23T14:00:21.135Z,2.30
2022-09-23T14:02:55.558Z,1.10
2022-09-23T14:05:35.865Z,0.70
2022-09-23T14:08:11.456Z,0.70
2022-09-23T14:10:47.825Z,0.60
2022-09-23T14:13:28.382Z,0.70
2022-09-23T14:16:05.261Z,0.80
2022-09-23T14:18:44.344Z,0.70
2022-09-23T14:21:39.990Z,0.70
2022-09-23T14:24:27.583Z,1.00
2022-09-23T14:27:16.228Z,1.10
2022-09-23T14:29:51.781Z,0.90
2022-09-23T14:32:30.160Z,0.70
2022-09-23T14:35:27.083Z,0.60
2022-09-23T14:38:19.646Z,0.70
2022-09-23T14:41:13.033Z,0.70
2022-09-23T14:43:54.810Z,0.90
2022-09-23T14:46:34.322Z,1.00
2022-09-23T14:49:19.094Z,0.70
2022-09-23T14:51:59.167Z,0.80
2022-09-23T14:54:45.426Z,0.60
2022-09-23T14:57:32.972Z,0.70
2022-09-23T15:00:21.401Z,0.80
2022-09-23T15:03:12.826Z,1.00
2022-09-23T15:05:52.905Z,1.20
2022-09-23T15:08:29.474Z,0.80
2022-09-23T15:11:08.370Z,1.00
2022-09-23T15:13:48.051Z,0.90
2022-09-23T15:16:29.950Z,0.90
2022-09-23T15:19:05.295Z,0.90
2022-09-23T15:21:46.904Z,0.70
2022-09-23T15:24:45.132Z,0.70
2022-09-23T15:27:37.472Z,0.60
2022-09-23T15:30:22.743Z,0.90
2022-09-23T15:32:57.484Z,0.60
2022-09-23T15:35:33.572Z,0.70
2022-09-23T15:38:10.882Z,0.70
2022-09-23T15:40:45.204Z,0.60
2022-09-23T15:43:22.768Z,1.00
2022-09-23T15:46:03.154Z,0.60
2022-09-23T15:48:45.410Z,0.50
2022-09-23T15:51:20.062Z,0.50
2022-09-23T15:53:55.293Z,0.60
2022-09-23T15:56:29.905Z,0.50
2022-09-23T16:00:29.374Z,0.70
2022-09-23T16:03:04.422Z,1.00
2022-09-23T16:05:45.960Z,1.30
2022-09-23T16:08:23.571Z,0.70
2022-09-23T16:10:58.313Z,0.80
2022-09-23T16:13:32.489Z,0.60
2022-09-23T16:16:08.007Z,0.50
2022-09-23T16:18:44.138Z,0.70
2022-09-23T16:21:22.922Z,1.10
2022-09-23T16:23:59.831Z,2.20
2022-09-23T16:26:40.071Z,1.70
2022-09-23T16:29:15.009Z,1.20
2022-09-23T16:31:49.076Z,0.50
2022-09-23T16:34:23.538Z,0.60
2022-09-23T16:36:57.554Z,0.70
2022-09-23T16:39:32.021Z,1.10
2022-09-23T16:42:07.083Z,0.80
2022-09-23T16:44:41.600Z,0.60
2022-09-23T16:47:16.130Z,0.70
2022-09-23T16:49:49.973Z,0.60
2022-09-23T16:52:23.776Z,0.50
2022-09-23T16:54:57.748Z,0.60
2022-09-23T16:57:32.033Z,0.40
2022-09-23T17:00:28.677Z,0.60
2022-09-23T17:03:20.992Z,0.60
2022-09-23T17:05:57.439Z,0.50
2022-09-23T17:08:31.609Z,0.70
2022-09-23T17:11:05.641Z,0.70
2022-09-23T17:13:42.659Z,0.50
2022-09-23T17:16:28.142Z,1.00
2022-09-23T17:19:06.339Z,0.70
2022-09-23T17:21:41.027Z,2.10
2022-09-23T17:24:16.209Z,8.40
2022-09-23T17:26:53.089Z,4.00
2022-09-23T17:29:29.624Z,2.30
2022-09-23T17:32:05.091Z,1.30
2022-09-23T17:34:39.009Z,1.20
2022-09-23T17:37:13.117Z,1.40
2022-09-23T17:39:47.525Z,1.70
2022-09-23T17:42:21.465Z,1.40
2022-09-23T17:44:58.293Z,0.80
2022-09-23T17:47:33.595Z,1.00
2022-09-23T17:50:10.391Z,1.00
2022-09-23T17:52:44.236Z,0.80
2022-09-23T17:55:19.260Z,2.40
2022-09-23T17:57:56.162Z,26.60
2022-09-23T18:00:30.328Z,8.90
2022-09-23T18:03:04.156Z,12.40
2022-09-23T18:05:38.134Z,13.90
2022-09-23T18:08:12.380Z,12.80
2022-09-23T18:10:46.950Z,9.20
2022-09-23T18:13:21.315Z,3.70
2022-09-23T18:15:55.437Z,4.10
2022-09-23T18:18:29.743Z,5.30
2022-09-23T18:21:08.230Z,4.30
2022-09-23T18:23:44.008Z,3.50
2022-09-23T18:26:23.639Z,2.50
2022-09-23T18:29:01.677Z,1.80
2022-09-23T18:31:38.295Z,1.90
2022-09-23T18:34:17.479Z,2.60
2022-09-23T18:36:51.599Z,3.00
2022-09-23T18:39:28.247Z,3.90
2022-09-23T18:42:02.773Z,4.80
2022-09-23T18:44:37.580Z,5.00
2022-09-23T18:47:32.520Z,5.80
2022-09-23T18:50:25.376Z,6.00
2022-09-23T18:53:04.005Z,7.70
2022-09-23T18:55:40.917Z,8.50
2022-09-23T18:58:16.966Z,7.30
2022-09-23T19:00:55.434Z,12.80
2022-09-23T19:03:30.478Z,12.10
2022-09-23T19:06:11.445Z,11.50
2022-09-23T19:08:50.432Z,15.60
2022-09-23T19:11:26.844Z,17.40
2022-09-23T19:14:03.004Z,11.70
2022-09-23T19:16:37.557Z,12.50
2022-09-23T19:19:12.094Z,13.90
2022-09-23T19:21:49.645Z,14.20
2022-09-23T19:24:23.736Z,14.00
2022-09-23T19:26:58.522Z,15.40
2022-09-23T19:29:35.144Z,35.40
2022-09-23T19:32:09.322Z,56.20
2022-09-23T19:34:44.379Z,37.70
2022-09-23T19:37:18.525Z,28.10
2022-09-23T19:39:52.579Z,23.30
2022-09-23T19:42:28.331Z,14.10
2022-09-23T19:45:03.114Z,11.00
2022-09-23T19:47:38.225Z,10.70
2022-09-23T19:50:14.674Z,10.90
2022-09-23T19:52:51.937Z,8.60
2022-09-23T19:55:26.100Z,7.00
2022-09-23T19:58:00.785Z,5.80
2022-09-23T20:00:36.270Z,11.40
2022-09-23T20:03:11.075Z,8.40
2022-09-23T20:05:47.358Z,8.80
2022-09-23T20:08:21.755Z,6.30
2022-09-23T20:10:56.347Z,11.10
2022-09-23T20:13:33.881Z,8.70
2022-09-23T20:16:12.289Z,5.80
2022-09-23T20:18:48.127Z,5.40
2022-09-23T20:21:23.508Z,6.90
2022-09-23T20:23:58.047Z,6.20
2022-09-23T20:26:50.856Z,6.80
2022-09-23T20:29:24.982Z,6.60
2022-09-23T20:31:59.330Z,6.80
2022-09-23T20:34:33.810Z,6.90
2022-09-23T20:37:11.078Z,7.00
2022-09-23T20:39:45.654Z,7.40
2022-09-23T20:42:20.715Z,7.80
2022-09-23T20:44:55.012Z,8.00
2022-09-23T20:47:31.623Z,6.90
2022-09-23T20:50:05.954Z,6.80
2022-09-23T20:52:40.072Z,7.70
2022-09-23T20:55:15.607Z,8.20
2022-09-23T20:57:51.952Z,9.60
2022-09-23T21:00:26.642Z,9.10
2022-09-23T21:03:02.750Z,8.70
2022-09-23T21:05:40.116Z,9.80
2022-09-23T21:08:14.004Z,9.50
2022-09-23T21:10:56.916Z,8.20
2022-09-23T21:13:31.849Z,9.00
2022-09-23T21:16:12.125Z,9.60
2022-09-23T21:18:46.919Z,10.50
2022-09-23T21:21:22.478Z,13.30
2022-09-23T21:24:11.688Z,14.70
2022-09-23T21:26:51.569Z,16.50
2022-09-23T21:29:25.678Z,15.90
2022-09-23T21:32:02.326Z,16.60
2022-09-23T21:34:36.202Z,12.20
2022-09-23T21:37:10.321Z,10.90
2022-09-23T21:40:05.028Z,9.20
2022-09-23T21:42:39.055Z,10.10
2022-09-23T21:45:14.216Z,9.40
2022-09-23T21:47:48.172Z,8.70
2022-09-23T21:50:22.337Z,7.80
2022-09-23T21:52:57.337Z,7.30
2022-09-23T21:55:31.445Z,7.70
2022-09-23T21:58:05.351Z,7.40
2022-09-23T22:00:40.359Z,9.10
2022-09-23T22:03:16.192Z,7.80
2022-09-23T22:06:00.262Z,8.30
2022-09-23T22:08:38.019Z,8.20
2022-09-23T22:11:34.629Z,8.30
2022-09-23T22:14:12.550Z,9.80
2022-09-23T22:16:47.163Z,10.30
2022-09-23T22:19:21.119Z,8.70
2022-09-23T22:21:56.026Z,9.80
2022-09-23T22:24:30.150Z,9.50
2022-09-23T22:27:04.256Z,9.10
2022-09-23T22:29:56.251Z,8.70
2022-09-23T22:32:43.928Z,8.50
2022-09-23T22:35:20.390Z,7.80
2022-09-23T22:37:55.903Z,9.00
2022-09-23T22:40:29.738Z,8.50
2022-09-23T22:43:03.937Z,8.40
2022-09-23T22:45:39.806Z,8.30
2022-09-23T22:48:14.678Z,8.30
2022-09-23T22:50:48.476Z,8.10
2022-09-23T22:53:22.419Z,8.10
2022-09-23T22:56:03.335Z,7.20
2022-09-23T22:58:37.061Z,8.80
2022-09-23T23:01:11.496Z,7.80
2022-09-23T23:03:45.929Z,7.90
2022-09-23T23:06:21.090Z,7.60
2022-09-23T23:08:58.569Z,7.90
2022-09-23T23:11:32.729Z,7.80
2022-09-23T23:14:06.607Z,7.10
2022-09-23T23:16:41.576Z,7.60
2022-09-23T23:19:19.420Z,6.80
2022-09-23T23:21:55.134Z,7.50
2022-09-23T23:24:31.673Z,7.10
2022-09-23T23:27:05.812Z,7.10
2022-09-23T23:29:42.825Z,6.80
2022-09-23T23:32:17.169Z,7.30
2022-09-23T23:34:51.377Z,8.10
2022-09-23T23:37:25.229Z,7.70
2022-09-23T23:39:59.251Z,8.50
2022-09-23T23:42:33.213Z,8.00
2022-09-23T23:45:08.329Z,8.00
2022-09-23T23:47:42.638Z,6.20
2022-09-23T23:50:17.858Z,7.00
2022-09-23T23:52:51.743Z,6.30
2022-09-23T23:55:25.850Z,6.50
2022-09-23T23:58:03.381Z,6.60
